createdAt,value
2023-04-02T00:02:46.576Z,8.40
2023-04-02T00:07:58.444Z,9.80
2023-04-02T00:13:09.191Z,9.50
2023-04-02T00:18:18.923Z,9.60
2023-04-02T00:23:26.602Z,9.90
2023-04-02T00:28:34.314Z,9.80
2023-04-02T00:33:45.617Z,9.30
2023-04-02T00:38:53.360Z,9.80
2023-04-02T00:44:03.180Z,9.00
2023-04-02T00:49:16.850Z,10.10
2023-04-02T00:54:29.676Z,9.10
2023-04-02T00:59:50.484Z,9.80
2023-04-02T01:05:00.236Z,9.80
2023-04-02T01:10:24.411Z,9.40
2023-04-02T01:15:38.121Z,9.00
2023-04-02T01:21:07.613Z,7.80
2023-04-02T01:26:25.025Z,7.70
2023-04-02T01:31:37.679Z,7.80
2023-04-02T01:36:51.673Z,8.30
2023-04-02T01:42:07.958Z,7.80
2023-04-02T01:47:18.231Z,8.30
2023-04-02T01:52:38.533Z,7.90
2023-04-02T01:57:48.752Z,8.30
2023-04-02T02:02:56.428Z,8.40
2023-04-02T02:08:04.326Z,9.30
2023-04-02T02:13:18.002Z,8.40
2023-04-02T02:18:25.760Z,8.40
2023-04-02T02:23:33.318Z,8.10
2023-04-02T02:28:44.365Z,8.30
2023-04-02T02:33:57.171Z,8.70
2023-04-02T02:39:15.458Z,8.40
2023-04-02T02:44:29.318Z,8.80
2023-04-02T02:49:40.416Z,7.60
2023-04-02T02:54:50.337Z,8.60
2023-04-02T02:59:59.711Z,7.40
2023-04-02T03:05:09.683Z,7.90
2023-04-02T03:10:24.763Z,6.80
2023-04-02T03:15:40.137Z,7.30
2023-04-02T03:20:54.302Z,6.00
2023-04-02T03:26:10.011Z,6.80
2023-04-02T03:31:26.957Z,6.10
2023-04-02T03:36:38.855Z,5.70
2023-04-02T03:41:52.095Z,6.30
2023-04-02T03:47:06.088Z,4.60
2023-04-02T03:52:16.765Z,5.40
2023-04-02T03:57:31.540Z,4.60
2023-04-02T04:02:45.164Z,5.60
2023-04-02T04:07:57.469Z,5.20
2023-04-02T04:13:14.206Z,5.40
2023-04-02T04:18:35.324Z,4.60
2023-04-02T04:23:52.292Z,4.50
2023-04-02T04:29:10.094Z,5.10
2023-04-02T04:34:23.366Z,4.30
2023-04-02T04:39:43.736Z,24.40
2023-04-02T04:44:57.413Z,184.50
2023-04-02T04:50:11.615Z,185.30
2023-04-02T04:55:32.717Z,114.70
2023-04-02T05:00:46.615Z,113.30
2023-04-02T05:05:54.737Z,78.80
2023-04-02T05:11:07.668Z,75.80
2023-04-02T05:16:23.733Z,72.60
2023-04-02T05:21:40.446Z,86.70
2023-04-02T05:26:51.935Z,75.90
2023-04-02T05:32:06.098Z,39.90
2023-04-02T05:37:19.339Z,40.70
2023-04-02T05:42:30.980Z,51.70
2023-04-02T05:47:44.449Z,57.30
2023-04-02T05:52:58.801Z,38.90
2023-04-02T05:58:34.547Z,31.20
2023-04-02T06:03:52.164Z,55.40
2023-04-02T06:09:06.047Z,27.00
2023-04-02T06:14:15.979Z,33.40
2023-04-02T06:19:29.043Z,28.40
2023-04-02T06:24:39.333Z,33.00
2023-04-02T06:29:52.374Z,30.30
2023-04-02T06:35:00.974Z,15.80
2023-04-02T06:40:25.000Z,13.30
2023-04-02T06:45:36.605Z,13.60
2023-04-02T06:50:56.975Z,17.80
2023-04-02T06:56:08.103Z,16.90
2023-04-02T07:01:24.043Z,11.50
2023-04-02T07:06:32.298Z,18.60
2023-04-02T07:11:41.241Z,14.90
2023-04-02T07:16:49.247Z,12.90
2023-04-02T07:21:57.055Z,21.80
2023-04-02T07:27:07.920Z,12.80
2023-04-02T07:32:16.041Z,13.00
2023-04-02T07:37:23.357Z,15.00
2023-04-02T07:42:30.865Z,10.90
2023-04-02T07:47:38.328Z,9.10
2023-04-02T07:52:46.124Z,9.50
2023-04-02T07:57:55.689Z,8.40
2023-04-02T08:03:03.036Z,7.70
2023-04-02T08:08:10.503Z,8.70
2023-04-02T08:13:19.086Z,9.40
2023-04-02T08:18:27.481Z,8.50
2023-04-02T08:23:35.475Z,7.50
2023-04-02T08:28:43.251Z,8.50
2023-04-02T08:33:50.926Z,13.70
2023-04-02T08:39:01.446Z,23.10
2023-04-02T08:44:24.146Z,18.80
2023-04-02T08:49:37.809Z,9.80
2023-04-02T08:54:45.752Z,54.10
2023-04-02T09:00:00.483Z,55.20
2023-04-02T09:05:19.750Z,47.90
2023-04-02T09:10:35.601Z,101.20
2023-04-02T09:15:42.720Z,79.10
2023-04-02T09:20:50.581Z,38.50
2023-04-02T09:26:04.261Z,36.90
2023-04-02T09:31:21.671Z,23.70
2023-04-02T09:36:37.780Z,46.80
2023-04-02T09:41:50.209Z,34.70
2023-04-02T09:47:05.260Z,23.90
2023-04-02T09:52:22.411Z,21.00
2023-04-02T09:57:30.117Z,11.60
2023-04-02T10:02:37.746Z,25.70
2023-04-02T10:07:48.382Z,51.10
2023-04-02T10:13:01.908Z,51.70
2023-04-02T10:18:18.627Z,38.10
2023-04-02T10:23:29.455Z,20.80
2023-04-02T10:28:55.044Z,17.90
2023-04-02T10:34:07.380Z,25.60
2023-04-02T10:39:18.567Z,13.50
2023-04-02T10:44:44.449Z,11.00
2023-04-02T10:49:59.893Z,37.40
2023-04-02T10:55:15.663Z,32.30
2023-04-02T11:00:28.260Z,24.20
2023-04-02T11:05:44.562Z,23.70
2023-04-02T11:10:54.815Z,12.60
2023-04-02T11:16:02.502Z,9.30
2023-04-02T11:26:47.717Z,8.50
2023-04-02T11:32:31.577Z,15.50
2023-04-02T11:37:43.205Z,16.00
2023-04-02T11:42:51.709Z,9.20
2023-04-02T11:48:34.242Z,8.00
2023-04-02T11:59:00.120Z,5.60
2023-04-02T12:04:43.972Z,4.20
2023-04-02T12:09:54.405Z,5.50
2023-04-02T12:15:02.783Z,7.30
2023-04-02T12:20:33.751Z,5.00
2023-04-02T12:25:42.073Z,4.00
2023-04-02T12:30:50.624Z,4.40
2023-04-02T12:36:02.023Z,5.60
2023-04-02T12:41:22.005Z,6.20
2023-04-02T12:46:29.700Z,4.60
2023-04-02T12:51:38.237Z,4.20
2023-04-02T12:56:45.924Z,5.30
2023-04-02T13:02:02.103Z,5.80
2023-04-02T13:07:18.191Z,5.20
2023-04-02T13:12:34.379Z,4.80
2023-04-02T13:17:44.119Z,5.00
2023-04-02T13:22:51.640Z,4.10
2023-04-02T13:27:59.547Z,3.50
2023-04-02T13:33:07.171Z,3.60
2023-04-02T13:38:14.946Z,3.60
2023-04-02T13:43:23.697Z,2.60
2023-04-02T13:48:31.048Z,2.40
2023-04-02T13:53:38.551Z,5.30
2023-04-02T13:58:47.215Z,6.40
2023-04-02T14:03:55.411Z,4.30
2023-04-02T14:09:06.022Z,2.80
2023-04-02T14:14:36.334Z,2.70
2023-04-02T14:20:06.848Z,2.80
2023-04-02T14:25:22.473Z,4.00
2023-04-02T14:30:38.844Z,4.30
2023-04-02T14:35:52.171Z,4.50
2023-04-02T14:41:06.568Z,4.10
2023-04-02T14:46:14.078Z,3.40
2023-04-02T14:51:28.548Z,3.30
2023-04-02T14:56:41.110Z,4.30
2023-04-02T15:01:51.830Z,4.20
2023-04-02T15:07:04.758Z,4.00
2023-04-02T15:12:16.524Z,3.70
2023-04-02T15:17:24.267Z,3.30
2023-04-02T15:22:40.092Z,3.80
2023-04-02T15:28:02.021Z,2.20
2023-04-02T15:33:36.330Z,2.50
2023-04-02T15:38:46.449Z,2.50
2023-04-02T15:44:04.590Z,2.60
2023-04-02T15:49:28.699Z,2.50
2023-04-02T15:54:55.064Z,3.40
2023-04-02T16:00:31.213Z,2.20
2023-04-02T16:05:44.636Z,3.90
2023-04-02T16:10:51.893Z,3.90
2023-04-02T16:16:05.944Z,2.80
2023-04-02T16:21:16.479Z,3.20
2023-04-02T16:26:41.011Z,3.20
2023-04-02T16:31:54.504Z,3.10
2023-04-02T16:37:10.598Z,3.60
2023-04-02T16:42:30.087Z,4.00
2023-04-02T16:47:57.914Z,4.20
2023-04-02T16:53:15.189Z,2.70
2023-04-02T16:58:36.506Z,2.00
2023-04-02T17:04:08.821Z,2.10
2023-04-02T17:14:40.670Z,1.90
2023-04-02T17:19:49.535Z,3.70
2023-04-02T17:25:00.339Z,17.30
2023-04-02T17:30:14.873Z,35.20
2023-04-02T17:35:32.524Z,50.90
2023-04-02T17:40:44.947Z,27.80
2023-04-02T17:45:56.682Z,13.70
2023-04-02T17:51:17.263Z,12.50
2023-04-02T17:56:40.757Z,17.30
2023-04-02T18:01:52.594Z,11.60
2023-04-02T18:07:22.596Z,13.10
2023-04-02T18:12:43.639Z,20.60
2023-04-02T18:17:55.467Z,14.30
2023-04-02T18:23:13.247Z,21.40
2023-04-02T18:28:48.366Z,10.20
2023-04-02T18:34:20.264Z,7.30
2023-04-02T18:39:38.664Z,5.40
2023-04-02T18:44:57.624Z,33.90
2023-04-02T18:50:17.629Z,31.20
2023-04-02T18:55:28.705Z,37.80
2023-04-02T19:00:40.918Z,28.20
2023-04-02T19:05:53.631Z,24.50
2023-04-02T19:11:03.653Z,18.20
2023-04-02T19:16:35.700Z,18.10
2023-04-02T19:21:56.218Z,16.00
2023-04-02T19:27:10.199Z,8.40
2023-04-02T19:32:29.254Z,6.00
2023-04-02T19:37:41.999Z,9.00
2023-04-02T19:42:51.104Z,8.40
2023-04-02T19:48:00.368Z,5.50
2023-04-02T19:53:07.705Z,4.50
2023-04-02T19:58:20.362Z,4.70
2023-04-02T20:03:28.027Z,5.40
2023-04-02T20:08:36.658Z,4.50
2023-04-02T20:13:43.882Z,4.40
2023-04-02T20:18:51.368Z,3.40
2023-04-02T20:23:58.585Z,2.60
2023-04-02T20:29:05.753Z,2.60
2023-04-02T20:34:14.142Z,2.70
2023-04-02T20:39:21.978Z,2.60
2023-04-02T20:44:29.205Z,1.70
2023-04-02T20:49:36.874Z,2.10
2023-04-02T20:54:44.248Z,1.70
2023-04-02T20:59:51.686Z,1.20
2023-04-02T21:04:59.428Z,0.70
2023-04-02T21:10:07.288Z,1.00
2023-04-02T21:15:15.103Z,1.10
2023-04-02T21:20:22.331Z,1.40
2023-04-02T21:25:29.654Z,1.40
2023-04-02T21:30:36.849Z,1.40
2023-04-02T21:35:44.076Z,1.00
2023-04-02T21:40:51.301Z,1.20
2023-04-02T21:46:01.898Z,1.00
2023-04-02T21:51:14.413Z,1.40
2023-04-02T21:56:23.118Z,1.10
2023-04-02T22:01:33.877Z,1.20
2023-04-02T22:06:43.465Z,1.20
2023-04-02T22:11:53.137Z,1.10
2023-04-02T22:17:00.513Z,1.20
2023-04-02T22:22:07.890Z,1.50
2023-04-02T22:27:15.207Z,1.10
2023-04-02T22:32:22.695Z,0.90
2023-04-02T22:37:34.314Z,1.10
2023-04-02T22:42:41.512Z,1.00
2023-04-02T22:47:48.657Z,0.80
2023-04-02T22:52:56.325Z,1.00
2023-04-02T22:58:03.529Z,1.10
2023-04-02T23:03:10.745Z,1.40
2023-04-02T23:08:18.195Z,1.50
2023-04-02T23:13:25.623Z,1.40
2023-04-02T23:18:33.114Z,1.30
2023-04-02T23:23:40.647Z,1.30
2023-04-02T23:28:48.507Z,1.10
2023-04-02T23:33:56.162Z,1.20
2023-04-02T23:39:08.360Z,0.90
2023-04-02T23:44:15.898Z,1.00
2023-04-02T23:49:23.146Z,0.90
2023-04-02T23:54:30.755Z,1.10
2023-04-02T23:59:40.455Z,1.20
